Time;durP1;ratioP1;P1;durP2;ratioP2;P2;SDS_P1;SDS_P2;PMS_P1;PMS_P2;Temp;Humidity;BMP_temperature;BMP_pressure;BME280_temperature;BME280_humidity;BME280_pressure;Samples;Min_cycle;Max_cycle;Signal;HPM_P1;HPM_P2
2022/11/15 00:01:37;;;;;;;4.40;3.47;;;10.50;92.30;;;;;;5114907;28;20187;-43
2022/11/15 00:04:03;;;;;;;3.40;2.93;;;10.50;92.00;;;;;;5114229;28;20278;-44
2022/11/15 00:06:29;;;;;;;5.17;3.50;;;10.40;92.00;;;;;;5114849;28;20439;-42
2022/11/15 00:08:57;;;;;;;3.90;3.03;;;10.40;92.30;;;;;;5115932;28;20422;-43
2022/11/15 00:11:23;;;;;;;4.43;2.70;;;10.40;92.10;;;;;;5117081;28;20465;-43
2022/11/15 00:13:48;;;;;;;4.20;2.80;;;10.30;92.30;;;;;;5116923;28;20564;-44
2022/11/15 00:16:14;;;;;;;3.70;3.13;;;10.40;92.10;;;;;;5118072;28;20584;-43
2022/11/15 00:18:39;;;;;;;4.53;2.77;;;10.30;92.10;;;;;;5117787;28;20476;-43
2022/11/15 00:21:08;;;;;;;3.03;2.53;;;10.30;92.10;;;;;;5117894;28;20550;-44
2022/11/15 00:23:36;;;;;;;4.37;3.10;;;10.30;92.20;;;;;;5099794;28;20195;-47
2022/11/15 00:26:01;;;;;;;3.77;3.20;;;10.20;92.20;;;;;;5117384;28;20419;-42
2022/11/15 00:28:27;;;;;;;3.50;3.00;;;10.20;92.20;;;;;;5113263;28;20431;-42
2022/11/15 00:30:53;;;;;;;3.73;3.20;;;10.20;92.20;;;;;;5111740;28;20418;-44
2022/11/15 00:33:19;;;;;;;3.07;2.63;;;10.10;92.20;;;;;;5118056;28;20202;-44
2022/11/15 00:35:44;;;;;;;3.10;2.60;;;10.10;92.20;;;;;;5117909;28;20500;-42
2022/11/15 00:38:10;;;;;;;3.60;2.90;;;10.10;92.20;;;;;;5117234;28;20542;-43
2022/11/15 00:40:36;;;;;;;3.00;2.57;;;10.10;92.20;;;;;;5109827;28;20542;-47
2022/11/15 00:43:01;;;;;;;3.13;2.83;;;10.10;92.20;;;;;;5118142;28;20263;-43
2022/11/15 00:45:27;;;;;;;2.83;2.60;;;10.00;92.20;;;;;;5117386;28;20176;-43
2022/11/15 00:47:53;;;;;;;4.47;2.90;;;10.00;92.20;;;;;;5119464;28;20203;-44
2022/11/15 00:50:18;;;;;;;3.83;3.10;;;10.00;92.30;;;;;;5121928;28;20589;-44
2022/11/15 00:52:44;;;;;;;3.77;3.10;;;10.00;92.30;;;;;;5121526;28;20291;-48
2022/11/15 00:55:17;;;;;;;3.07;2.50;;;9.90;92.80;;;;;;5121738;28;20465;-47
2022/11/15 00:57:43;;;;;;;3.50;2.87;;;9.90;92.80;;;;;;5121595;28;20775;-44
2022/11/15 01:00:09;;;;;;;3.33;2.63;;;9.90;92.80;;;;;;5121280;28;20715;-42
2022/11/15 01:02:35;;;;;;;3.10;2.80;;;9.90;92.90;;;;;;5121771;28;20521;-41
2022/11/15 01:05:01;;;;;;;3.00;2.40;;;9.90;92.90;;;;;;5121737;28;20495;-44
2022/11/15 01:07:26;;;;;;;3.07;2.20;;;9.90;92.90;;;;;;5121195;28;20298;-44
2022/11/15 01:09:52;;;;;;;4.07;2.73;;;9.90;92.90;;;;;;5120930;28;20186;-41
2022/11/15 01:12:17;;;;;;;6.30;2.90;;;9.80;92.90;;;;;;5121796;28;20199;-42
2022/11/15 01:14:45;;;;;;;4.87;2.90;;;9.80;92.90;;;;;;5121507;28;20633;-43
2022/11/15 01:17:14;;;;;;;3.80;3.27;;;9.80;92.90;;;;;;5121648;28;20175;-42
2022/11/15 01:19:40;;;;;;;3.20;2.90;;;9.80;92.90;;;;;;5121053;28;20536;-44
2022/11/15 01:22:05;;;;;;;3.73;2.67;;;9.70;93.00;;;;;;5103511;28;20506;-41
2022/11/15 01:24:31;;;;;;;4.03;2.93;;;9.70;93.00;;;;;;5121161;28;20211;-42
2022/11/15 01:26:56;;;;;;;6.20;3.20;;;9.60;93.00;;;;;;5120745;28;20454;-42
2022/11/15 01:29:22;;;;;;;4.13;3.30;;;9.60;93.10;;;;;;5111554;28;20218;-43
2022/11/15 01:31:48;;;;;;;3.70;3.17;;;9.60;93.10;;;;;;5120799;28;20200;-41
2022/11/15 01:34:14;;;;;;;2.63;2.40;;;9.60;93.10;;;;;;5120670;28;20236;-41
2022/11/15 01:36:40;;;;;;;3.43;2.80;;;9.60;93.10;;;;;;5120877;28;20251;-43
2022/11/15 01:39:06;;;;;;;3.47;2.83;;;9.60;93.20;;;;;;5112270;28;20517;-45
2022/11/15 01:41:32;;;;;;;3.00;2.70;;;9.60;93.20;;;;;;5120509;28;20230;-43
2022/11/15 01:44:33;;;;;;;3.70;2.93;;;9.50;93.10;;;;;;5121096;28;20461;-42
2022/11/15 01:47:02;;;;;;;2.80;2.50;;;9.50;93.20;;;;;;5120619;28;20405;-43
2022/11/15 01:49:30;;;;;;;3.50;2.90;;;9.50;93.20;;;;;;5085833;28;20434;-43
2022/11/15 01:51:55;;;;;;;3.40;2.97;;;9.50;93.20;;;;;;5120537;28;20732;-44
2022/11/15 01:54:21;;;;;;;3.20;2.90;;;9.50;93.30;;;;;;5102035;28;20477;-44
2022/11/15 01:57:00;;;;;;;3.30;2.60;;;9.50;93.30;;;;;;5120564;28;20411;-44
2022/11/15 01:59:26;;;;;;;3.80;2.97;;;9.60;93.40;;;;;;5119755;28;20184;-43
2022/11/15 02:01:52;;;;;;;4.17;3.20;;;9.50;93.30;;;;;;5102265;28;20489;-43
2022/11/15 02:04:24;;;;;;;3.23;2.77;;;9.50;93.30;;;;;;5120785;28;20275;-42
2022/11/15 02:06:50;;;;;;;3.70;2.80;;;9.60;93.40;;;;;;5102520;28;20413;-43
2022/11/15 02:09:17;;;;;;;4.77;3.23;;;9.50;93.40;;;;;;5120359;28;20859;-42
2022/11/15 02:11:44;;;;;;;3.43;2.50;;;9.50;93.40;;;;;;5119993;28;20553;-43
2022/11/15 02:14:10;;;;;;;3.57;3.00;;;9.50;93.40;;;;;;5101544;28;20433;-44
2022/11/15 02:16:49;;;;;;;3.77;3.00;;;9.50;93.40;;;;;;5119542;28;20414;-42
2022/11/15 02:19:33;;;;;;;3.80;3.17;;;9.50;93.80;;;;;;5101794;28;20429;-44
2022/11/15 02:22:17;;;;;;;4.27;2.80;;;9.50;93.50;;;;;;5102052;28;20442;-41
2022/11/15 02:25:01;;;;;;;2.90;2.60;;;9.50;93.50;;;;;;5119691;28;20454;-42
2022/11/15 02:27:54;;;;;;;3.47;2.80;;;9.50;93.50;;;;;;5119612;28;20414;-41
2022/11/15 02:30:31;;;;;;;3.30;2.73;;;9.50;93.80;;;;;;5101974;28;20457;-42
2022/11/15 02:33:26;;;;;;;3.43;2.60;;;9.50;93.60;;;;;;5119430;28;20461;-42
2022/11/15 02:35:57;;;;;;;2.93;2.60;;;9.50;93.60;;;;;;5120003;28;20441;-45
2022/11/15 02:38:54;;;;;;;3.40;2.77;;;9.40;93.60;;;;;;5098934;28;20773;-44
2022/11/15 02:41:40;;;;;;;3.03;2.73;;;9.40;93.70;;;;;;5076820;28;20420;-46
2022/11/15 02:44:25;;;;;;;3.37;2.77;;;9.40;93.70;;;;;;5119322;28;20510;-44
2022/11/15 02:47:14;;;;;;;3.03;2.63;;;9.40;93.70;;;;;;5101904;28;20409;-44
2022/11/15 02:49:49;;;;;;;3.23;2.70;;;9.40;93.80;;;;;;5103197;28;20437;-42
2022/11/15 02:52:20;;;;;;;3.23;2.77;;;9.40;93.80;;;;;;5118536;28;20471;-43
2022/11/15 02:54:57;;;;;;;4.23;3.00;;;9.40;93.80;;;;;;5097719;28;20989;-42
2022/11/15 02:57:28;;;;;;;3.20;2.57;;;9.40;93.90;;;;;;5098488;28;20403;-46
2022/11/15 03:00:05;;;;;;;2.70;2.13;;;9.40;93.90;;;;;;5098981;28;20518;-45
2022/11/15 03:02:48;;;;;;;3.77;2.53;;;9.40;93.90;;;;;;5097789;28;20418;-44
2022/11/15 03:05:18;;;;;;;2.60;2.40;;;9.30;93.90;;;;;;5098899;28;20466;-42
2022/11/15 03:07:48;;;;;;;3.30;3.00;;;9.30;93.90;;;;;;5098535;28;20471;-42
2022/11/15 03:10:25;;;;;;;3.20;2.80;;;9.30;94.00;;;;;;5097921;28;20418;-44
2022/11/15 03:12:56;;;;;;;3.57;2.40;;;9.30;94.00;;;;;;5096866;28;20532;-44
2022/11/15 03:15:28;;;;;;;3.67;2.50;;;9.30;94.00;;;;;;5098408;28;20469;-46
2022/11/15 03:18:36;;;;;;;3.67;3.23;;;9.30;94.00;;;;;;5097579;28;20472;-43
2022/11/15 03:21:04;;;;;;;3.50;3.20;;;9.30;94.00;;;;;;5059528;28;20768;-43
2022/11/15 03:23:31;;;;;;;2.50;2.17;;;9.30;94.00;;;;;;5097136;28;20437;-43
2022/11/15 03:25:58;;;;;;;6.80;2.80;;;9.30;94.00;;;;;;5098334;28;20481;-45
2022/11/15 03:28:28;;;;;;;3.03;2.73;;;9.30;94.00;;;;;;5098022;28;20434;-43
2022/11/15 03:30:55;;;;;;;2.70;2.27;;;9.30;94.10;;;;;;5098187;28;20455;-44
2022/11/15 03:33:21;;;;;;;3.60;2.47;;;9.40;94.10;;;;;;5096807;28;20765;-42
2022/11/15 03:35:47;;;;;;;6.67;2.80;;;9.40;94.20;;;;;;5097119;28;20451;-44
2022/11/15 03:38:25;;;;;;;2.80;2.60;;;9.40;94.20;;;;;;5096494;28;20769;-46
2022/11/15 03:41:01;;;;;;;3.50;2.87;;;9.40;94.20;;;;;;5098545;28;20411;-44
2022/11/15 03:43:49;;;;;;;2.47;2.20;;;9.40;94.30;;;;;;5096829;28;20708;-44
2022/11/15 03:46:19;;;;;;;2.80;2.43;;;9.40;94.30;;;;;;5098336;28;20418;-42
2022/11/15 03:48:52;;;;;;;2.53;1.93;;;9.40;94.30;;;;;;5097588;28;20423;-45
2022/11/15 03:51:18;;;;;;;2.90;2.40;;;9.40;94.30;;;;;;5097122;28;20454;-43
2022/11/15 03:53:43;;;;;;;3.10;2.50;;;9.40;94.40;;;;;;5097096;28;20527;-40
2022/11/15 03:56:09;;;;;;;4.03;2.80;;;9.40;94.70;;;;;;5100083;28;20418;-43
2022/11/15 03:58:34;;;;;;;3.43;2.90;;;9.40;94.40;;;;;;5116204;28;20183;-44
2022/11/15 04:01:00;;;;;;;2.80;1.97;;;9.40;94.30;;;;;;5115665;28;20199;-43
2022/11/15 04:03:26;;;;;;;2.97;2.20;;;9.40;94.30;;;;;;5098336;28;20196;-43
2022/11/15 04:05:51;;;;;;;4.30;3.00;;;9.40;94.30;;;;;;5115430;28;20221;-43
2022/11/15 04:08:17;;;;;;;2.77;2.40;;;9.40;94.30;;;;;;5114574;28;20212;-44
2022/11/15 04:10:42;;;;;;;3.00;2.50;;;9.40;94.40;;;;;;5109217;28;20252;-50
2022/11/15 04:13:08;;;;;;;7.90;2.90;;;9.40;94.40;;;;;;5097176;28;20211;-42
2022/11/15 04:15:34;;;;;;;4.00;2.70;;;9.40;94.40;;;;;;5116701;28;20168;-44
2022/11/15 04:17:59;;;;;;;2.70;2.07;;;9.40;94.40;;;;;;5098554;28;20182;-44
2022/11/15 04:26:05;;;;;;;2.40;2.10;;;9.40;94.50;;;;;;5121763;28;20396;-43
2022/11/15 04:28:31;;;;;;;2.77;2.30;;;9.50;94.50;;;;;;5103256;28;20464;-42
2022/11/15 04:30:57;;;;;;;2.90;2.37;;;9.40;94.50;;;;;;5121005;28;20461;-44
2022/11/15 04:33:23;;;;;;;2.57;2.37;;;9.40;94.50;;;;;;5120681;28;20207;-44
2022/11/15 04:38:35;;;;;;;2.80;2.40;;;9.50;94.50;;;;;;5060004;28;20428;-44
2022/11/15 04:41:01;;;;;;;2.43;2.23;;;9.50;94.50;;;;;;5121201;28;20409;-45
2022/11/15 04:43:27;;;;;;;2.47;2.23;;;9.50;94.50;;;;;;5117544;28;20691;-44
2022/11/15 04:45:53;;;;;;;2.67;2.47;;;9.50;94.50;;;;;;5114696;28;20418;-42
2022/11/15 04:48:18;;;;;;;2.60;2.40;;;9.50;94.50;;;;;;5120095;28;20425;-44
2022/11/15 04:50:44;;;;;;;3.40;2.50;;;9.50;94.50;;;;;;5118855;28;20572;-42
2022/11/15 04:53:10;;;;;;;3.60;3.20;;;9.50;94.50;;;;;;5116843;28;20549;-43
2022/11/15 04:55:35;;;;;;;2.60;2.37;;;9.50;94.50;;;;;;5117375;28;20227;-43
2022/11/15 04:58:02;;;;;;;3.30;2.70;;;9.50;94.60;;;;;;5116962;28;20263;-45
2022/11/15 05:00:28;;;;;;;3.90;2.80;;;9.50;94.60;;;;;;5116679;28;20237;-45
2022/11/15 05:05:39;;;;;;;3.33;2.37;;;9.50;94.60;;;;;;5118879;28;20424;-46
2022/11/15 05:08:04;;;;;;;2.40;2.20;;;9.40;94.60;;;;;;5120987;28;20894;-42
2022/11/15 05:10:30;;;;;;;3.63;2.63;;;9.40;94.60;;;;;;5119877;28;20542;-44
2022/11/15 05:12:56;;;;;;;3.77;2.83;;;9.40;94.60;;;;;;5119047;28;20276;-43
2022/11/15 05:15:22;;;;;;;4.43;2.83;;;9.40;94.70;;;;;;5118076;28;20445;-43
2022/11/15 05:17:47;;;;;;;3.13;2.67;;;9.40;94.70;;;;;;5118298;28;20172;-43
2022/11/15 05:20:13;;;;;;;3.43;2.43;;;9.40;94.70;;;;;;5119196;28;20177;-44
2022/11/15 05:22:39;;;;;;;2.73;2.50;;;9.40;94.80;;;;;;5118242;28;20377;-43
2022/11/15 05:25:05;;;;;;;3.77;2.60;;;9.40;94.80;;;;;;5116322;28;20188;-44
2022/11/15 05:27:31;;;;;;;8.23;3.10;;;9.30;94.80;;;;;;5099474;28;20771;-42
2022/11/15 05:29:56;;;;;;;3.57;2.47;;;9.30;94.80;;;;;;5115663;28;20529;-41
2022/11/15 05:32:22;;;;;;;2.63;2.33;;;9.30;95.20;;;;;;5116096;28;20218;-43
2022/11/15 05:34:48;;;;;;;3.00;2.33;;;9.30;94.90;;;;;;5114921;28;20223;-46
2022/11/15 05:37:14;;;;;;;2.80;2.30;;;9.30;94.90;;;;;;5099377;28;20294;-42
2022/11/15 05:39:39;;;;;;;3.30;2.93;;;9.30;94.90;;;;;;5118874;28;20184;-44
2022/11/15 05:42:13;;;;;;;2.87;2.53;;;9.30;94.90;;;;;;5118301;28;21063;-43
2022/11/15 05:44:41;;;;;;;3.57;2.53;;;9.30;94.80;;;;;;5116967;28;20192;-42
2022/11/15 05:47:09;;;;;;;2.93;2.63;;;9.30;94.80;;;;;;5115655;28;20406;-41
2022/11/15 05:49:36;;;;;;;3.17;2.77;;;9.30;94.80;;;;;;5114892;28;20459;-42
2022/11/15 05:52:05;;;;;;;5.00;2.53;;;9.30;94.70;;;;;;5097068;28;20699;-43
2022/11/15 05:54:31;;;;;;;2.60;2.40;;;9.30;94.70;;;;;;5116128;28;20570;-45
2022/11/15 05:56:57;;;;;;;3.37;2.57;;;9.40;94.70;;;;;;5115458;28;20437;-44
2022/11/15 05:59:22;;;;;;;3.10;2.80;;;9.30;94.60;;;;;;5116675;28;20468;-45
2022/11/15 06:01:48;;;;;;;2.83;2.53;;;9.30;94.60;;;;;;5116767;28;20168;-42
2022/11/15 06:04:14;;;;;;;4.30;2.60;;;9.30;94.50;;;;;;5115570;28;20396;-42
2022/11/15 06:06:40;;;;;;;2.67;2.20;;;9.30;94.50;;;;;;5114656;28;20414;-42
2022/11/15 06:09:05;;;;;;;2.57;2.10;;;9.30;94.40;;;;;;5081900;28;20182;-41
2022/11/15 06:11:31;;;;;;;2.90;2.40;;;9.30;94.40;;;;;;5114641;28;20172;-42
2022/11/15 06:13:56;;;;;;;6.17;2.50;;;9.20;94.40;;;;;;5113877;28;20221;-41
2022/11/15 06:16:22;;;;;;;3.07;2.67;;;9.20;94.50;;;;;;5095190;28;20191;-43
2022/11/15 06:18:48;;;;;;;3.90;2.90;;;9.10;94.50;;;;;;5112983;28;20180;-42
2022/11/15 06:21:13;;;;;;;3.03;2.37;;;9.10;94.70;;;;;;5093473;28;20199;-42
2022/11/15 06:23:39;;;;;;;4.37;2.20;;;9.10;94.80;;;;;;5086025;28;20190;-42
2022/11/15 06:26:05;;;;;;;3.07;2.30;;;9.00;94.80;;;;;;5050548;28;20636;-45
2022/11/15 06:28:32;;;;;;;4.00;2.27;;;9.00;94.90;;;;;;5068439;28;20383;-41
2022/11/15 06:31:11;;;;;;;3.00;2.50;;;9.00;95.00;;;;;;5052576;28;20216;-40
2022/11/15 06:33:37;;;;;;;2.63;2.40;;;9.00;95.00;;;;;;5069975;28;20540;-41
2022/11/15 06:36:04;;;;;;;3.30;2.60;;;9.00;95.10;;;;;;5070665;28;20772;-44
2022/11/15 06:38:29;;;;;;;3.63;3.33;;;9.00;95.10;;;;;;5072348;28;20438;-43
2022/11/15 06:41:00;;;;;;;5.10;2.40;;;9.10;95.20;;;;;;5073879;28;20689;-41
2022/11/15 06:43:26;;;;;;;2.60;2.10;;;9.10;95.20;;;;;;5053280;28;20189;-41
2022/11/15 06:45:52;;;;;;;3.13;2.57;;;9.10;95.30;;;;;;5067700;28;20413;-42
2022/11/15 06:48:17;;;;;;;4.07;2.90;;;9.20;95.30;;;;;;5071677;28;20479;-43
2022/11/15 06:50:43;;;;;;;2.97;2.77;;;9.20;95.20;;;;;;5072920;28;20181;-43
2022/11/15 06:53:08;;;;;;;2.67;2.47;;;9.30;95.30;;;;;;5052787;28;20491;-41
2022/11/15 06:55:34;;;;;;;2.70;2.10;;;9.30;95.20;;;;;;5071138;28;20235;-41
2022/11/15 06:57:59;;;;;;;3.00;2.70;;;9.40;95.10;;;;;;5057421;28;20196;-40
2022/11/15 07:00:25;;;;;;;3.90;2.80;;;9.50;95.10;;;;;;5072085;28;20563;-42
2022/11/15 07:02:51;;;;;;;4.07;3.57;;;9.60;95.10;;;;;;5070796;28;20294;-43
2022/11/15 07:05:17;;;;;;;3.70;3.40;;;9.70;95.00;;;;;;5072121;28;20458;-40
2022/11/15 07:07:42;;;;;;;3.90;2.73;;;9.80;94.90;;;;;;5073181;28;20177;-41
2022/11/15 07:10:09;;;;;;;3.70;3.00;;;9.90;94.70;;;;;;5073064;28;20440;-41
2022/11/15 07:12:36;;;;;;;3.67;2.90;;;10.10;94.00;;;;;;5074472;28;20213;-42
2022/11/15 07:15:01;;;;;;;3.37;2.97;;;10.20;93.70;;;;;;5073566;28;20474;-40
2022/11/15 07:17:27;;;;;;;2.97;2.47;;;10.40;93.50;;;;;;5075223;28;20415;-42
2022/11/15 07:19:53;;;;;;;4.07;2.70;;;10.50;93.20;;;;;;5057080;28;20190;-40
2022/11/15 07:22:18;;;;;;;3.10;2.40;;;10.60;93.10;;;;;;5073142;28;20259;-40
2022/11/15 07:24:44;;;;;;;3.80;2.77;;;10.80;93.00;;;;;;5075162;28;20795;-41
2022/11/15 07:27:10;;;;;;;4.30;2.90;;;11.00;92.70;;;;;;5076543;28;20568;-42
2022/11/15 07:29:35;;;;;;;3.50;2.80;;;11.20;92.40;;;;;;5056384;28;20208;-41
2022/11/15 07:32:01;;;;;;;3.93;2.57;;;11.50;92.30;;;;;;5073422;28;20350;-41
2022/11/15 07:34:26;;;;;;;3.73;2.30;;;12.00;92.20;;;;;;5075030;28;20193;-43
2022/11/15 07:36:52;;;;;;;4.17;2.50;;;12.50;91.10;;;;;;5054873;28;20174;-41
2022/11/15 07:39:18;;;;;;;3.20;2.67;;;12.90;90.20;;;;;;5056714;28;20346;-41
2022/11/15 07:41:43;;;;;;;2.53;2.30;;;13.20;89.30;;;;;;5075613;28;20184;-41
2022/11/15 07:44:09;;;;;;;2.83;2.30;;;13.50;88.40;;;;;;5075378;28;20193;-42
2022/11/15 07:46:34;;;;;;;2.53;2.33;;;14.00;87.70;;;;;;5073715;28;20177;-41
2022/11/15 07:49:00;;;;;;;2.80;2.30;;;14.40;85.70;;;;;;5074992;28;20188;-41
2022/11/15 07:51:26;;;;;;;3.93;2.70;;;14.70;84.20;;;;;;5074289;28;20652;-43
2022/11/15 07:53:51;;;;;;;3.77;2.20;;;14.70;83.10;;;;;;5074581;28;20217;-41
2022/11/15 07:56:17;;;;;;;3.00;2.60;;;14.70;82.60;;;;;;5075703;28;20548;-41
2022/11/15 07:58:42;;;;;;;4.50;2.57;;;14.70;82.00;;;;;;5067249;28;20192;-42
2022/11/15 08:01:09;;;;;;;6.30;3.00;;;14.80;81.70;;;;;;5053156;28;20193;-41
2022/11/15 08:03:35;;;;;;;3.87;3.20;;;14.80;81.10;;;;;;5076458;28;20181;-43
2022/11/15 08:06:01;;;;;;;3.47;2.40;;;15.10;80.90;;;;;;5057962;28;20438;-43
2022/11/15 08:08:27;;;;;;;3.90;3.13;;;15.20;79.70;;;;;;5075413;28;20543;-41
2022/11/15 08:10:52;;;;;;;3.30;2.60;;;15.40;79.10;;;;;;5074814;28;20416;-42
2022/11/15 08:13:20;;;;;;;4.37;2.47;;;15.70;78.10;;;;;;5071699;28;20208;-42
2022/11/15 08:15:46;;;;;;;3.60;2.27;;;16.20;76.00;;;;;;5075519;28;20265;-40
2022/11/15 08:18:14;;;;;;;2.93;2.40;;;16.80;73.70;;;;;;5076027;28;20515;-42
2022/11/15 08:20:40;;;;;;;2.47;2.20;;;17.40;71.30;;;;;;5074821;28;20174;-42
2022/11/15 08:23:07;;;;;;;1.87;1.70;;;18.00;68.60;;;;;;5074203;28;20417;-41
2022/11/15 08:25:34;;;;;;;2.50;2.20;;;18.60;65.90;;;;;;5073395;28;20430;-41
2022/11/15 08:28:02;;;;;;;3.03;2.40;;;19.10;63.20;;;;;;5073321;28;20431;-43
2022/11/15 08:30:29;;;;;;;3.47;2.30;;;19.70;61.20;;;;;;5055670;28;20867;-41
2022/11/15 08:32:57;;;;;;;3.07;2.30;;;20.40;59.30;;;;;;5074997;28;20457;-41
2022/11/15 08:35:23;;;;;;;3.50;2.20;;;21.60;57.50;;;;;;5074408;28;20905;-42
2022/11/15 08:37:49;;;;;;;2.90;2.57;;;22.60;54.30;;;;;;5056432;28;20423;-41
2022/11/15 08:40:15;;;;;;;3.17;2.57;;;23.30;52.10;;;;;;5056914;28;20834;-42
2022/11/15 08:42:41;;;;;;;3.53;2.00;;;23.90;49.90;;;;;;5074568;28;20575;-42
2022/11/15 08:45:07;;;;;;;2.10;1.90;;;24.20;48.30;;;;;;5075864;28;20437;-42
2022/11/15 08:47:33;;;;;;;4.00;2.10;;;24.50;47.30;;;;;;5073998;28;20212;-43
2022/11/15 08:49:59;;;;;;;3.17;2.00;;;24.80;46.50;;;;;;5074335;28;20462;-42
2022/11/15 08:52:25;;;;;;;2.93;2.10;;;25.40;45.50;;;;;;5076400;28;20376;-44
2022/11/15 08:54:50;;;;;;;2.43;2.00;;;26.20;44.40;;;;;;5075029;28;20579;-43
2022/11/15 08:57:16;;;;;;;3.50;2.20;;;26.80;43.50;;;;;;5073067;28;20173;-43
2022/11/15 08:59:42;;;;;;;2.30;1.70;;;27.30;42.50;;;;;;5073588;28;20192;-42
2022/11/15 09:02:13;;;;;;;3.50;2.30;;;27.60;41.60;;;;;;5074837;28;20173;-42
2022/11/15 09:04:41;;;;;;;1.77;1.67;;;27.50;41.10;;;;;;5073251;28;20187;-41
2022/11/15 09:07:07;;;;;;;2.50;2.13;;;27.40;40.90;;;;;;5057585;28;20477;-41
2022/11/15 09:09:33;;;;;;;2.87;2.13;;;27.30;40.60;;;;;;5057389;28;21032;-41
2022/11/15 09:11:58;;;;;;;2.27;2.00;;;26.90;40.80;;;;;;5079154;28;20411;-41
2022/11/15 09:14:24;;;;;;;3.13;2.00;;;26.40;41.10;;;;;;5077544;28;20556;-42
2022/11/15 09:16:49;;;;;;;3.37;2.00;;;25.70;41.50;;;;;;5078893;28;20180;-41
2022/11/15 09:19:15;;;;;;;3.00;2.17;;;25.10;41.90;;;;;;5080786;28;20196;-41
2022/11/15 09:21:42;;;;;;;3.20;1.90;;;24.80;42.60;;;;;;5079417;28;20268;-43
2022/11/15 09:24:08;;;;;;;2.50;1.87;;;25.30;43.50;;;;;;5080055;28;20198;-41
2022/11/15 09:26:34;;;;;;;3.80;2.13;;;25.70;43.40;;;;;;5079633;28;20432;-41
2022/11/15 09:29:01;;;;;;;2.87;1.90;;;26.00;43.70;;;;;;5078946;28;20572;-42
2022/11/15 09:31:27;;;;;;;2.80;2.30;;;26.40;44.00;;;;;;5078902;28;20231;-42
2022/11/15 09:33:52;;;;;;;2.20;1.77;;;26.80;43.00;;;;;;5078528;28;20893;-41
2022/11/15 09:36:18;;;;;;;3.83;1.40;;;27.20;42.90;;;;;;5079007;28;20417;-42
2022/11/15 09:38:44;;;;;;;2.93;2.63;;;27.40;42.80;;;;;;5061307;28;20587;-46
2022/11/15 09:41:12;;;;;;;2.17;1.80;;;27.30;42.50;;;;;;5078299;28;20717;-42
2022/11/15 09:44:07;;;;;;;2.37;2.07;;;27.10;42.80;;;;;;5079298;28;20238;-44
2022/11/15 09:46:55;;;;;;;3.13;2.60;;;26.80;43.10;;;;;;5059981;28;20501;-41
2022/11/15 09:49:21;;;;;;;4.77;2.07;;;26.40;43.00;;;;;;5078316;28;20415;-42
2022/11/15 09:51:52;;;;;;;2.37;2.00;;;25.90;43.60;;;;;;5078333;28;20486;-43
2022/11/15 09:54:30;;;;;;;4.07;2.27;;;25.40;44.60;;;;;;5079258;28;20737;-44
2022/11/15 09:57:35;;;;;;;2.60;2.10;;;25.00;45.30;;;;;;5078814;28;20437;-42
2022/11/15 10:00:41;;;;;;;3.93;2.50;;;24.60;45.70;;;;;;5078953;28;20423;-43
2022/11/15 10:03:31;;;;;;;3.00;2.33;;;24.10;46.70;;;;;;5073784;28;20427;-44
2022/11/15 10:06:00;;;;;;;2.63;2.00;;;23.60;47.60;;;;;;5078285;28;20430;-43
2022/11/15 10:08:55;;;;;;;2.60;2.00;;;23.20;48.10;;;;;;5061029;28;20426;-45
2022/11/15 10:11:27;;;;;;;3.23;2.30;;;22.70;48.90;;;;;;5059348;28;20193;-43
2022/11/15 10:13:58;;;;;;;2.93;2.03;;;22.40;48.60;;;;;;5059651;28;20900;-45
2022/11/15 10:17:01;;;;;;;4.03;2.17;;;22.30;48.50;;;;;;5061004;28;20465;-42
2022/11/15 10:19:45;;;;;;;3.37;2.23;;;22.30;48.60;;;;;;5078230;28;20418;-43
2022/11/15 10:22:34;;;;;;;3.23;2.70;;;22.20;48.40;;;;;;5078232;28;20927;-46
2022/11/15 10:25:13;;;;;;;2.63;2.00;;;22.10;48.40;;;;;;5077530;28;20866;-44
2022/11/15 10:27:43;;;;;;;3.00;2.13;;;22.10;48.30;;;;;;5059605;28;20424;-44
2022/11/15 10:30:17;;;;;;;4.73;2.80;;;22.10;48.40;;;;;;5043962;28;20519;-43
2022/11/15 10:32:45;;;;;;;2.73;2.13;;;22.00;48.40;;;;;;5061412;28;20534;-43
2022/11/15 10:35:22;;;;;;;2.60;2.40;;;22.00;48.50;;;;;;5044821;28;20524;-42
2022/11/15 10:37:48;;;;;;;4.03;2.27;;;21.90;48.30;;;;;;5070940;28;20726;-44
2022/11/15 10:40:23;;;;;;;3.60;2.50;;;21.80;48.40;;;;;;5096428;28;20425;-43
2022/11/15 10:43:10;;;;;;;2.67;2.40;;;21.60;48.60;;;;;;5093827;28;20181;-42
2022/11/15 10:45:38;;;;;;;5.10;2.63;;;21.30;48.60;;;;;;5096534;28;20511;-45
2022/11/15 10:48:12;;;;;;;2.60;1.87;;;21.00;48.80;;;;;;5096170;28;20426;-41
2022/11/15 10:50:40;;;;;;;2.30;2.07;;;20.80;48.90;;;;;;5096666;28;20440;-42
2022/11/15 10:53:20;;;;;;;3.33;2.03;;;20.60;49.00;;;;;;5094925;28;20480;-43
2022/11/15 10:55:47;;;;;;;2.53;1.90;;;20.30;49.00;;;;;;5075369;28;20613;-43
2022/11/15 10:58:34;;;;;;;2.40;1.93;;;20.10;49.10;;;;;;5074302;28;20737;-42
2022/11/15 11:01:21;;;;;;;2.20;1.93;;;19.80;49.40;;;;;;5074791;28;20438;-42
2022/11/15 11:04:06;;;;;;;2.27;2.00;;;19.70;49.80;;;;;;5053718;28;20432;-41
2022/11/15 11:06:53;;;;;;;2.30;2.03;;;19.60;50.20;;;;;;5060565;28;20433;-42
2022/11/15 11:09:31;;;;;;;2.00;1.60;;;19.60;50.20;;;;;;5076176;28;20465;-42
2022/11/15 11:11:57;;;;;;;2.60;1.53;;;19.60;50.20;;;;;;5075517;28;20701;-42
2022/11/15 11:14:34;;;;;;;2.80;1.77;;;19.60;50.30;;;;;;5076049;28;20415;-43
2022/11/15 11:17:07;;;;;;;2.73;1.83;;;19.60;50.50;;;;;;5075813;28;20443;-44
2022/11/15 11:19:45;;;;;;;1.70;1.60;;;19.70;50.60;;;;;;5074414;28;20423;-43
2022/11/15 11:22:35;;;;;;;2.60;1.73;;;19.80;50.50;;;;;;5073875;28;20427;-44
2022/11/15 11:25:23;;;;;;;1.80;1.53;;;19.90;50.40;;;;;;5076807;28;20457;-43
2022/11/15 11:28:21;;;;;;;3.10;1.80;;;20.00;50.40;;;;;;5073948;28;20451;-43
2022/11/15 11:31:02;;;;;;;4.00;1.80;;;20.10;50.40;;;;;;5070280;28;20440;-42
2022/11/15 11:33:32;;;;;;;2.07;1.80;;;20.10;50.40;;;;;;5056664;28;20505;-44
2022/11/15 11:36:31;;;;;;;2.40;1.70;;;20.10;50.50;;;;;;5055715;28;20833;-45
2022/11/15 11:39:17;;;;;;;2.60;1.70;;;20.10;50.70;;;;;;5044336;28;20439;-44
2022/11/15 11:42:24;;;;;;;2.00;1.80;;;20.20;50.80;;;;;;5073296;28;20692;-41
2022/11/15 11:45:18;;;;;;;2.10;1.40;;;20.20;51.00;;;;;;4994713;28;20523;-46
2022/11/15 11:47:54;;;;;;;2.80;1.73;;;20.20;51.00;;;;;;5075246;28;20419;-43
2022/11/15 11:50:21;;;;;;;2.67;1.53;;;20.40;50.90;;;;;;5059460;28;20699;-44
2022/11/15 11:53:02;;;;;;;2.43;1.80;;;20.40;50.70;;;;;;5059694;28;20473;-44
2022/11/15 11:55:33;;;;;;;2.47;1.70;;;20.50;50.60;;;;;;5076979;28;20765;-43
2022/11/15 11:58:19;;;;;;;4.27;2.10;;;20.70;50.50;;;;;;5061072;28;20527;-42
2022/11/15 12:00:58;;;;;;;2.27;1.97;;;20.80;50.40;;;;;;5082874;28;20443;-43
2022/11/15 12:03:40;;;;;;;2.03;1.40;;;20.80;50.30;;;;;;5095060;28;20453;-43
2022/11/15 12:06:12;;;;;;;3.10;1.90;;;20.70;50.50;;;;;;5094566;28;20935;-43
2022/11/15 12:08:47;;;;;;;2.60;2.40;;;20.60;50.60;;;;;;5096140;28;20425;-46
2022/11/15 12:11:27;;;;;;;2.60;2.40;;;20.40;50.70;;;;;;5095579;28;20780;-42
2022/11/15 12:13:58;;;;;;;2.43;1.83;;;20.30;50.90;;;;;;5076348;28;20460;-42
2022/11/15 12:16:32;;;;;;;3.00;2.10;;;20.20;51.10;;;;;;5072837;28;20444;-44
2022/11/15 12:19:01;;;;;;;2.70;2.10;;;20.00;51.30;;;;;;5091233;28;20421;-45
2022/11/15 12:21:40;;;;;;;2.00;1.70;;;19.80;51.50;;;;;;5075099;28;20471;-44
2022/11/15 12:24:35;;;;;;;2.47;1.80;;;19.60;51.90;;;;;;5076290;28;20486;-44
2022/11/15 12:27:27;;;;;;;1.87;1.53;;;19.40;52.40;;;;;;5048494;28;20450;-43
2022/11/15 12:30:02;;;;;;;2.70;2.00;;;19.20;52.60;;;;;;5074597;28;20426;-43
2022/11/15 12:32:33;;;;;;;4.13;1.40;;;19.10;53.00;;;;;;5092062;28;20545;-42
2022/11/15 12:35:01;;;;;;;2.77;2.10;;;19.00;53.30;;;;;;5074463;28;20434;-42
2022/11/15 12:37:43;;;;;;;2.00;1.57;;;18.90;53.40;;;;;;5095201;28;20422;-43
2022/11/15 12:40:09;;;;;;;2.30;1.80;;;18.80;53.70;;;;;;5095024;28;20426;-45
2022/11/15 12:42:56;;;;;;;2.43;2.00;;;18.70;53.90;;;;;;5094901;28;20802;-48
2022/11/15 12:45:25;;;;;;;3.27;1.93;;;18.60;54.10;;;;;;5096765;28;20439;-42
2022/11/15 12:47:50;;;;;;;2.30;2.03;;;18.60;54.30;;;;;;5098284;28;20417;-43
2022/11/15 12:50:16;;;;;;;4.17;2.37;;;18.60;54.40;;;;;;5097986;28;20428;-42
2022/11/15 12:53:20;;;;;;;2.17;1.67;;;18.50;54.50;;;;;;5063619;28;20444;-42
2022/11/15 12:56:11;;;;;;;2.67;1.90;;;18.50;54.70;;;;;;5096373;28;20741;-41
2022/11/15 12:58:56;;;;;;;1.83;1.60;;;18.50;54.90;;;;;;5094092;28;20593;-44
2022/11/15 13:01:32;;;;;;;4.97;1.80;;;18.40;55.00;;;;;;5076046;28;20418;-44
2022/11/15 13:04:19;;;;;;;2.40;1.67;;;18.40;55.20;;;;;;5094479;28;20515;-43
2022/11/15 13:06:48;;;;;;;2.23;1.63;;;18.30;55.30;;;;;;5097637;28;20446;-42
2022/11/15 13:09:35;;;;;;;2.20;2.00;;;18.30;55.40;;;;;;5079704;28;20514;-42
2022/11/15 13:12:01;;;;;;;2.30;2.00;;;18.20;55.50;;;;;;5095144;28;20452;-41
2022/11/15 13:14:41;;;;;;;2.10;1.80;;;18.20;55.60;;;;;;5098391;28;20434;-41
2022/11/15 13:17:18;;;;;;;2.20;1.70;;;18.10;55.80;;;;;;5058687;28;20451;-41
2022/11/15 13:19:46;;;;;;;1.90;1.50;;;18.00;55.80;;;;;;5095630;28;20454;-42
2022/11/15 13:24:56;;;;;;;2.83;1.83;;;17.80;56.20;;;;;;5097293;28;20460;-44